Time;durP1;ratioP1;P1;durP2;ratioP2;P2;SDS_P1;SDS_P2;PMS_P1;PMS_P2;Temp;Humidity;BMP_temperature;BMP_pressure;BME280_temperature;BME280_humidity;BME280_pressure;Samples;Min_cycle;Max_cycle;Signal;HPM_P1;HPM_P2
2023/06/04 00:00:21;;;;;;;4.97;3.00;;;;;;;18.87;57.23;98098.84;4194329;28;20622;-80
2023/06/04 00:02:26;;;;;;;4.10;2.97;;;;;;;18.82;56.43;98089.72;4195534;28;20636;-80
2023/06/04 00:04:29;;;;;;;3.83;3.07;;;;;;;18.79;56.71;98084.75;4211130;28;20627;-80
2023/06/04 00:06:33;;;;;;;4.60;2.70;;;;;;;18.78;56.96;98099.78;4195473;28;20674;-80
2023/06/04 00:08:36;;;;;;;5.73;2.90;;;;;;;18.77;56.92;98092.81;4190916;28;20989;-80
2023/06/04 00:10:40;;;;;;;3.43;2.63;;;;;;;18.77;56.60;98078.78;4195026;28;20722;-80
2023/06/04 00:12:43;;;;;;;3.93;2.77;;;;;;;18.78;56.65;98085.72;4200729;28;20632;-80
2023/06/04 00:14:46;;;;;;;9.50;3.17;;;;;;;18.75;56.73;98088.66;4195595;28;20726;-80
2023/06/04 00:16:49;;;;;;;3.47;2.80;;;;;;;18.73;56.47;98077.44;4193320;28;20639;-80
2023/06/04 00:18:54;;;;;;;5.30;2.87;;;;;;;18.70;56.78;98086.53;4188484;28;20755;-80
2023/06/04 00:20:57;;;;;;;3.53;2.40;;;;;;;18.71;57.03;98084.69;4199721;28;20992;-80
2023/06/04 00:23:00;;;;;;;6.67;2.60;;;;;;;18.73;56.23;98090.66;4185430;28;20764;-80
2023/06/04 00:25:04;;;;;;;3.37;2.50;;;;;;;18.71;56.54;98098.72;4185997;28;20837;-80
2023/06/04 00:27:08;;;;;;;2.93;2.60;;;;;;;18.69;57.00;98092.78;4180455;28;20670;-80
2023/06/04 00:29:11;;;;;;;4.77;2.77;;;;;;;18.67;56.47;98104.47;4197800;28;20667;-80
2023/06/04 00:31:15;;;;;;;4.63;2.50;;;;;;;18.63;56.52;98090.75;4194503;28;20762;-80
2023/06/04 00:33:19;;;;;;;4.27;2.80;;;;;;;18.67;56.30;98091.25;4194477;28;20627;-80
2023/06/04 00:35:23;;;;;;;3.30;2.43;;;;;;;18.65;56.56;98098.53;4201266;28;20623;-80
2023/06/04 00:37:26;;;;;;;3.43;2.50;;;;;;;18.65;56.49;98103.81;4197683;28;20632;-80
2023/06/04 00:39:30;;;;;;;3.33;2.80;;;;;;;18.65;56.10;98098.53;4183207;28;20633;-80
2023/06/04 00:41:33;;;;;;;4.80;2.40;;;;;;;18.60;56.10;98101.63;4202399;28;20728;-80
2023/06/04 00:43:36;;;;;;;3.30;2.07;;;;;;;18.60;56.61;98103.44;4187844;28;21630;-80
2023/06/04 00:45:39;;;;;;;3.37;2.70;;;;;;;18.62;55.79;98104.94;4196932;28;20663;-80
2023/06/04 00:47:43;;;;;;;3.33;2.53;;;;;;;18.57;56.05;98101.94;4187750;28;20722;-80
2023/06/04 00:49:46;;;;;;;4.50;2.77;;;;;;;18.57;55.95;98107.22;4198825;28;20642;-80
2023/06/04 00:51:52;;;;;;;3.30;2.50;;;;;;;18.58;56.13;98111.53;4193138;28;20636;-80
2023/06/04 00:53:55;;;;;;;4.00;2.90;;;;;;;18.54;56.68;98104.06;4187386;28;20616;-80
2023/06/04 00:55:58;;;;;;;3.30;2.60;;;;;;;18.53;57.02;98111.13;4197993;28;21222;-80
2023/06/04 00:58:03;;;;;;;3.73;2.30;;;;;;;18.50;57.38;98111.44;4196184;28;20663;-80
2023/06/04 01:00:08;;;;;;;3.80;2.63;;;;;;;18.50;57.48;98110.63;4197522;28;20814;-80
2023/06/04 01:02:13;;;;;;;5.23;3.30;;;;;;;18.48;58.29;98113.41;4195792;28;20632;-80
2023/06/04 01:04:22;;;;;;;4.37;2.70;;;;;;;18.48;58.43;98102.84;4195401;28;20672;-80
2023/06/04 01:06:30;;;;;;;3.93;3.00;;;;;;;18.48;58.53;98113.41;4198702;28;20663;-80
2023/06/04 01:08:36;;;;;;;4.03;2.67;;;;;;;18.47;56.99;98116.22;4193780;28;20623;-80
2023/06/04 01:10:51;;;;;;;3.97;2.80;;;;;;;18.46;57.95;98111.91;4204299;28;20761;-80
2023/06/04 01:12:55;;;;;;;3.40;3.10;;;;;;;18.43;58.58;98114.84;4195718;28;21230;-80
2023/06/04 01:14:59;;;;;;;3.23;2.50;;;;;;;18.41;56.83;98122.09;4197720;28;20638;-80
2023/06/04 01:17:28;;;;;;;5.87;3.90;;;;;;;18.38;57.72;98116.31;4180894;28;20641;-80
2023/06/04 01:20:14;;;;;;;3.93;2.50;;;;;;;18.31;56.90;98117.88;4181389;28;20660;-80
2023/06/04 01:22:23;;;;;;;4.83;2.90;;;;;;;18.33;56.01;98113.25;4163737;28;20635;-80
2023/06/04 01:24:28;;;;;;;5.07;2.73;;;;;;;18.31;56.26;98120.53;4197695;28;20642;-80
2023/06/04 01:26:32;;;;;;;3.10;2.43;;;;;;;18.24;57.32;98116.84;4179535;28;20640;-80
2023/06/04 01:28:36;;;;;;;4.07;2.63;;;;;;;18.19;56.64;98112.00;4195207;28;20663;-80
2023/06/04 01:30:45;;;;;;;3.77;2.97;;;;;;;18.17;56.81;98113.97;4197842;28;20742;-80
2023/06/04 01:32:49;;;;;;;3.30;2.40;;;;;;;18.12;56.46;98123.28;4203382;28;20670;-80
2023/06/04 01:34:53;;;;;;;3.63;2.90;;;;;;;18.09;57.37;98113.03;4180822;28;20622;-80
2023/06/04 01:36:56;;;;;;;3.90;2.93;;;;;;;18.08;57.08;98119.28;4195146;28;20730;-80
2023/06/04 01:39:03;;;;;;;5.17;2.30;;;;;;;18.06;57.42;98116.78;4182771;28;20644;-80
2023/06/04 01:41:08;;;;;;;3.57;2.63;;;;;;;17.98;56.78;98108.81;4199336;28;20667;-80
2023/06/04 01:43:11;;;;;;;6.10;2.97;;;;;;;17.96;56.97;98115.19;4179209;28;20996;-80
2023/06/04 01:45:17;;;;;;;5.00;2.40;;;;;;;17.93;56.16;98111.03;4197462;28;20618;-80
2023/06/04 01:47:21;;;;;;;4.63;2.50;;;;;;;17.92;56.54;98108.56;4196246;28;20663;-80
2023/06/04 01:49:24;;;;;;;3.23;2.50;;;;;;;17.90;56.90;98113.16;4196935;28;21206;-80
2023/06/04 01:51:28;;;;;;;5.27;2.60;;;;;;;17.91;56.33;98114.00;4184647;28;20681;-80
2023/06/04 01:53:32;;;;;;;4.47;2.43;;;;;;;17.91;57.60;98117.47;4183321;28;20648;-80
2023/06/04 01:55:37;;;;;;;5.80;3.00;;;;;;;17.89;56.78;98123.84;4197582;28;20649;-80
2023/06/04 01:57:43;;;;;;;2.97;2.10;;;;;;;17.88;56.83;98112.47;4195198;28;20623;-80
2023/06/04 01:59:48;;;;;;;3.73;2.43;;;;;;;17.85;55.58;98114.59;4193982;28;20732;-80
2023/06/04 02:01:52;;;;;;;3.40;2.37;;;;;;;17.86;56.36;98118.88;4212148;28;20688;-80
2023/06/04 02:03:56;;;;;;;3.20;2.27;;;;;;;17.84;55.57;98115.56;4180075;28;21225;-80
2023/06/04 02:05:59;;;;;;;5.00;3.03;;;;;;;17.81;58.02;98116.69;4196319;28;20663;-80
2023/06/04 02:08:04;;;;;;;3.80;2.83;;;;;;;17.74;57.62;98120.91;4179139;28;20631;-80
2023/06/04 02:10:10;;;;;;;3.60;2.80;;;;;;;17.69;57.21;98119.69;4196294;28;20633;-80
2023/06/04 02:12:13;;;;;;;3.50;2.60;;;;;;;17.59;58.02;98121.53;4180240;28;20632;-80
2023/06/04 02:14:18;;;;;;;4.23;2.80;;;;;;;17.55;56.82;98109.63;4183610;28;20678;-80
2023/06/04 02:16:22;;;;;;;3.30;2.17;;;;;;;17.59;56.41;98117.09;4199539;28;20629;-80
2023/06/04 02:18:26;;;;;;;3.80;2.10;;;;;;;17.59;57.00;98117.09;4189225;28;20621;-80
2023/06/04 02:20:29;;;;;;;2.93;2.20;;;;;;;17.60;56.70;98115.28;4169203;28;21254;-80
2023/06/04 02:22:33;;;;;;;3.67;2.60;;;;;;;17.60;57.97;98116.09;4188668;28;21209;-80
2023/06/04 02:24:38;;;;;;;3.60;2.70;;;;;;;17.57;58.85;98120.84;4186148;28;21188;-80
2023/06/04 02:26:42;;;;;;;2.73;2.13;;;;;;;17.49;58.20;98118.94;4188735;28;20629;-80
2023/06/04 02:28:45;;;;;;;3.40;2.33;;;;;;;17.43;58.74;98121.34;4190258;28;20637;-80
2023/06/04 02:30:51;;;;;;;5.17;2.80;;;;;;;17.41;59.24;98118.03;4190868;28;20719;-80
2023/06/04 02:32:54;;;;;;;4.20;2.70;;;;;;;17.35;59.15;98118.63;4187023;28;20632;-80
2023/06/04 02:34:58;;;;;;;3.53;2.43;;;;;;;17.34;59.92;98113.50;4175853;28;20766;-80
2023/06/04 02:37:02;;;;;;;3.73;2.83;;;;;;;17.36;59.75;98116.81;4189975;28;22336;-80
2023/06/04 02:39:05;;;;;;;4.10;3.00;;;;;;;17.29;60.08;98121.84;4188506;28;20645;-80
2023/06/04 02:41:09;;;;;;;4.13;2.53;;;;;;;17.28;60.97;98121.97;4190724;28;20646;-80
2023/06/04 02:43:12;;;;;;;4.77;3.27;;;;;;;17.21;60.86;98124.34;4188850;28;20701;-80
2023/06/04 02:45:16;;;;;;;3.87;3.10;;;;;;;17.13;60.79;98118.13;4193472;28;20631;-80
2023/06/04 02:47:21;;;;;;;4.30;3.33;;;;;;;17.08;62.83;98125.63;4186766;28;20688;-80
2023/06/04 02:49:24;;;;;;;4.10;2.90;;;;;;;17.05;61.72;98118.00;4187657;28;20644;-80
2023/06/04 02:51:28;;;;;;;4.10;2.70;;;;;;;16.99;63.87;98115.94;4187867;28;20638;-80
2023/06/04 02:53:32;;;;;;;5.33;3.00;;;;;;;16.97;63.88;98117.06;4172333;28;22638;-80
2023/06/04 02:55:36;;;;;;;4.90;3.20;;;;;;;16.97;63.18;98117.06;4186739;28;20683;-80
2023/06/04 02:57:41;;;;;;;4.13;2.70;;;;;;;16.97;62.10;98119.69;4188863;28;20642;-80
2023/06/04 02:59:45;;;;;;;3.77;2.90;;;;;;;16.98;61.42;98124.00;4186541;28;20659;-80
2023/06/04 03:01:49;;;;;;;6.17;2.50;;;;;;;16.91;62.23;98113.19;4186940;28;21002;-80
2023/06/04 03:03:55;;;;;;;3.03;2.33;;;;;;;16.91;60.59;98122.91;4179303;28;20637;-80
2023/06/04 03:05:59;;;;;;;3.90;2.60;;;;;;;16.87;61.74;98119.72;4174309;28;20692;-80
2023/06/04 03:08:03;;;;;;;2.67;2.20;;;;;;;16.85;60.53;98124.28;4187941;28;20714;-80
2023/06/04 03:10:09;;;;;;;4.00;2.70;;;;;;;16.86;59.67;98128.59;4193669;28;20939;-80
2023/06/04 03:12:12;;;;;;;3.10;2.40;;;;;;;16.87;59.49;98125.00;4190575;28;20740;-80
2023/06/04 03:14:16;;;;;;;4.00;2.87;;;;;;;16.86;60.07;98127.78;4198162;28;20646;-80
2023/06/04 03:16:20;;;;;;;3.07;2.33;;;;;;;16.86;61.52;98127.78;4181331;28;20998;-80
2023/06/04 03:18:24;;;;;;;3.97;2.87;;;;;;;16.85;63.23;98137.47;4198589;28;21391;-80
2023/06/04 03:20:29;;;;;;;4.17;3.23;;;;;;;16.78;61.43;98131.13;4181955;28;21067;-80
2023/06/04 03:22:33;;;;;;;3.97;3.10;;;;;;;16.75;62.42;98138.47;4197703;28;20642;-80
2023/06/04 03:24:38;;;;;;;3.40;2.83;;;;;;;16.70;64.76;98135.41;4197155;28;20638;-80
2023/06/04 03:26:41;;;;;;;5.10;2.93;;;;;;;16.62;63.97;98141.38;4194697;28;20633;-80
2023/06/04 03:28:48;;;;;;;4.63;3.13;;;;;;;16.56;64.03;98136.69;4187502;28;20637;-80
2023/06/04 03:30:55;;;;;;;3.23;2.70;;;;;;;16.53;62.33;98126.41;4202282;28;20639;-80
2023/06/04 03:33:00;;;;;;;6.63;2.97;;;;;;;16.54;62.48;98140.44;4189228;28;20657;-80
2023/06/04 03:35:05;;;;;;;3.90;2.90;;;;;;;16.54;64.95;98143.91;4178609;28;20689;-80
2023/06/04 03:37:09;;;;;;;3.47;2.30;;;;;;;16.50;62.31;98145.13;4198283;28;20637;-80
2023/06/04 03:39:13;;;;;;;4.20;2.40;;;;;;;16.53;62.28;98144.84;4184286;28;20635;-80
2023/06/04 03:41:16;;;;;;;3.10;2.80;;;;;;;16.52;63.75;98147.63;4181425;28;20636;-80
2023/06/04 03:43:19;;;;;;;4.40;3.17;;;;;;;16.53;63.33;98146.66;4197351;28;20637;-80
2023/06/04 03:45:24;;;;;;;4.70;2.60;;;;;;;16.52;64.84;98152.91;4192429;28;21059;-80
2023/06/04 03:47:28;;;;;;;6.00;2.87;;;;;;;16.51;65.25;98148.63;4192434;28;20632;-80
2023/06/04 03:49:31;;;;;;;4.97;2.73;;;;;;;16.49;65.50;98152.34;4180800;28;20729;-80
2023/06/04 03:51:36;;;;;;;4.07;3.10;;;;;;;16.49;64.38;98152.34;4199081;28;20636;-80
2023/06/04 03:53:42;;;;;;;3.57;2.57;;;;;;;16.45;62.59;98150.97;4204641;28;20632;-80
2023/06/04 03:55:45;;;;;;;3.10;2.37;;;;;;;16.50;62.70;98154.03;4176931;28;20739;-80
2023/06/04 03:57:49;;;;;;;5.40;3.37;;;;;;;16.51;64.64;98157.34;4201791;28;21253;-80
2023/06/04 03:59:52;;;;;;;4.47;3.00;;;;;;;16.50;64.50;98155.66;4196056;28;21045;-80
2023/06/04 04:01:55;;;;;;;4.00;2.43;;;;;;;16.52;63.40;98158.16;4197511;28;20655;-80
2023/06/04 04:03:59;;;;;;;3.63;2.60;;;;;;;16.53;63.53;98160.66;4202926;28;20631;-80
2023/06/04 04:06:03;;;;;;;5.87;2.90;;;;;;;16.53;62.72;98165.94;4201127;28;20671;-80
2023/06/04 04:08:08;;;;;;;3.73;2.77;;;;;;;16.55;63.28;98171.91;4185977;28;21274;-80
2023/06/04 04:10:13;;;;;;;3.90;2.83;;;;;;;16.56;65.16;98165.66;4186649;28;21197;-80
2023/06/04 04:12:17;;;;;;;3.20;2.50;;;;;;;16.55;63.96;98171.91;4182468;28;20615;-80
2023/06/04 04:14:20;;;;;;;4.43;3.17;;;;;;;16.55;65.03;98166.63;4196338;28;20636;-80
2023/06/04 04:16:23;;;;;;;5.67;2.47;;;;;;;16.51;62.72;98161.78;4194345;28;20751;-80
2023/06/04 04:18:27;;;;;;;3.20;2.57;;;;;;;16.58;61.91;98171.63;4193149;28;20620;-80
2023/06/04 04:20:30;;;;;;;4.67;3.07;;;;;;;16.65;65.52;98170.06;4198994;28;20693;-80
2023/06/04 04:22:42;;;;;;;3.70;2.50;;;;;;;16.71;64.01;98179.22;4197060;28;20632;-80
2023/06/04 04:24:47;;;;;;;3.00;2.43;;;;;;;16.76;62.92;98177.81;4183834;28;20629;-80
2023/06/04 04:26:53;;;;;;;2.60;2.13;;;;;;;16.67;62.41;98173.44;4198547;28;20635;-80
2023/06/04 04:29:03;;;;;;;4.60;2.73;;;;;;;16.72;59.00;98173.81;4203832;28;21191;-80
2023/06/04 04:31:08;;;;;;;4.57;2.47;;;;;;;16.78;60.97;98183.81;4199962;28;20713;-80
2023/06/04 04:33:15;;;;;;;3.80;2.13;;;;;;;16.83;62.52;98181.56;4185399;28;20760;-80
2023/06/04 04:35:23;;;;;;;3.40;2.10;;;;;;;16.84;61.14;98190.28;4195779;28;20632;-80
2023/06/04 04:37:29;;;;;;;2.57;1.80;;;;;;;16.89;60.50;98188.91;4185589;28;20634;-80
2023/06/04 04:39:33;;;;;;;3.27;2.10;;;;;;;16.95;60.59;98196.25;4202907;28;20669;-80
2023/06/04 04:41:38;;;;;;;4.20;2.00;;;;;;;17.01;59.18;98196.50;4199246;28;20740;-80
2023/06/04 04:43:43;;;;;;;2.30;1.73;;;;;;;17.07;61.16;98198.59;4184409;28;20637;-80
2023/06/04 04:45:54;;;;;;;2.67;1.80;;;;;;;17.14;59.61;98199.69;4181780;28;20630;-80
2023/06/04 04:47:57;;;;;;;3.00;1.90;;;;;;;17.21;59.34;98213.16;4187275;28;20636;-80
2023/06/04 04:50:01;;;;;;;2.50;1.87;;;;;;;17.25;60.11;98204.81;4195218;28;20688;-80
2023/06/04 04:52:05;;;;;;;2.83;1.90;;;;;;;17.28;59.76;98217.72;4186355;28;20641;-80
2023/06/04 04:54:08;;;;;;;3.17;2.03;;;;;;;17.34;58.53;98211.06;4202689;28;20993;-80
2023/06/04 04:56:12;;;;;;;2.60;1.90;;;;;;;17.37;59.41;98208.94;4187933;28;20631;-80
2023/06/04 04:58:19;;;;;;;4.33;2.17;;;;;;;17.40;58.28;98211.31;4189547;28;20633;-80
2023/06/04 05:00:24;;;;;;;2.53;1.90;;;;;;;17.44;58.73;98204.78;4199446;28;20770;-80
2023/06/04 05:02:30;;;;;;;3.93;2.17;;;;;;;17.46;58.30;98211.56;4196206;28;20672;-80
2023/06/04 05:04:34;;;;;;;3.67;1.60;;;;;;;17.49;57.90;98206.00;4187393;28;20730;-80
2023/06/04 05:06:38;;;;;;;2.93;1.70;;;;;;;17.50;57.84;98210.31;4182081;28;20654;-80
2023/06/04 05:08:43;;;;;;;3.97;2.27;;;;;;;17.54;57.95;98201.09;4186254;28;20646;-80
2023/06/04 05:10:47;;;;;;;3.37;2.00;;;;;;;17.60;57.42;98216.34;4192652;28;21205;-80
2023/06/04 05:12:54;;;;;;;3.03;2.00;;;;;;;17.58;57.78;98215.69;4186532;28;21031;-80
2023/06/04 05:14:59;;;;;;;3.27;2.40;;;;;;;17.57;58.19;98208.72;4200414;28;21319;-80
2023/06/04 05:17:06;;;;;;;3.50;2.17;;;;;;;17.47;57.03;98209.78;4196333;28;20651;-80
2023/06/04 05:19:10;;;;;;;2.43;1.80;;;;;;;17.46;57.60;98221.28;4179922;28;21016;-80
2023/06/04 05:21:16;;;;;;;3.00;1.90;;;;;;;17.48;60.28;98220.16;4187369;28;20657;-80
2023/06/04 05:23:25;;;;;;;3.73;1.67;;;;;;;17.52;58.62;98224.16;4180197;28;20634;-80
2023/06/04 05:25:28;;;;;;;2.60;1.80;;;;;;;17.58;58.50;98220.13;4199436;28;21087;-80
2023/06/04 05:27:32;;;;;;;4.50;1.70;;;;;;;17.64;60.12;98233.56;4197694;28;20621;-80
2023/06/04 05:29:36;;;;;;;2.80;2.17;;;;;;;17.69;61.00;98233.97;4196357;28;20642;-80
2023/06/04 05:31:39;;;;;;;3.50;1.90;;;;;;;17.69;60.47;98239.22;4179032;28;20650;-80
2023/06/04 05:33:47;;;;;;;3.00;2.03;;;;;;;17.72;59.89;98232.84;4200624;28;20664;-80
2023/06/04 05:35:54;;;;;;;2.90;1.93;;;;;;;17.77;60.82;98239.38;4182862;28;20661;-80
2023/06/04 05:38:00;;;;;;;2.67;1.87;;;;;;;17.80;60.12;98236.44;4180926;28;20628;-80
2023/06/04 05:40:07;;;;;;;4.90;2.23;;;;;;;17.77;59.66;98242.00;4203149;28;21259;-80
2023/06/04 05:42:11;;;;;;;2.40;2.00;;;;;;;17.79;62.49;98242.69;4183474;28;20691;-80
2023/06/04 05:44:15;;;;;;;2.40;1.80;;;;;;;17.82;61.47;98238.94;4204242;28;20638;-80
2023/06/04 05:46:18;;;;;;;2.70;1.90;;;;;;;17.86;61.57;98240.28;4198115;28;20735;-80
2023/06/04 05:48:22;;;;;;;2.27;1.67;;;;;;;17.89;59.63;98246.13;4197710;28;20696;-80
2023/06/04 05:50:27;;;;;;;3.00;2.00;;;;;;;17.92;59.37;98245.84;4177544;28;21066;-80
2023/06/04 05:52:32;;;;;;;2.93;1.70;;;;;;;17.96;59.78;98239.25;4198281;28;20639;-80
2023/06/04 05:54:36;;;;;;;3.40;1.80;;;;;;;18.04;59.49;98249.91;4186439;28;20621;-80
2023/06/04 05:56:41;;;;;;;3.83;1.87;;;;;;;18.06;58.32;98253.25;4182838;28;20628;-80
2023/06/04 05:58:44;;;;;;;3.23;2.13;;;;;;;18.09;58.90;98245.88;4205605;28;20776;-80
2023/06/04 06:00:48;;;;;;;2.90;2.00;;;;;;;18.16;58.72;98254.06;4214741;28;20632;-80
2023/06/04 06:02:53;;;;;;;3.07;2.20;;;;;;;18.16;58.74;98249.63;4185893;28;20627;-80
2023/06/04 06:05:11;;;;;;;2.50;1.80;;;;;;;18.24;59.07;98254.16;4183642;28;20673;-80
2023/06/04 06:07:15;;;;;;;3.50;1.87;;;;;;;18.27;58.44;98257.34;4188380;28;20657;-80
2023/06/04 06:09:20;;;;;;;3.43;2.40;;;;;;;18.60;58.50;98262.00;4183616;28;21061;-80
2023/06/04 06:11:23;;;;;;;4.10;2.00;;;;;;;19.07;58.82;98269.56;4184624;28;20655;-80
2023/06/04 06:13:28;;;;;;;2.77;2.00;;;;;;;19.38;57.40;98274.28;4195030;28;20641;-80
2023/06/04 06:15:32;;;;;;;2.20;1.67;;;;;;;19.89;57.98;98275.13;4185409;28;21212;-80
2023/06/04 06:17:36;;;;;;;3.33;2.30;;;;;;;20.37;55.78;98284.13;4194135;28;21247;-79
2023/06/04 06:19:40;;;;;;;3.40;2.13;;;;;;;20.77;56.32;98286.94;4183628;28;21035;-80
2023/06/04 06:21:43;;;;;;;3.53;2.00;;;;;;;20.97;55.09;98294.41;4187236;28;20656;-80
2023/06/04 06:23:48;;;;;;;3.40;2.20;;;;;;;21.24;54.92;98302.06;4191658;28;20627;-80
2023/06/04 06:25:52;;;;;;;4.70;2.27;;;;;;;21.58;53.72;98303.59;4178580;28;20785;-80
2023/06/04 06:27:59;;;;;;;2.70;2.23;;;;;;;21.77;52.79;98301.41;4195672;28;20679;-80
2023/06/04 06:30:04;;;;;;;2.80;1.80;;;;;;;21.88;52.78;98306.38;4198038;28;20649;-80
2023/06/04 06:32:07;;;;;;;3.93;2.00;;;;;;;22.20;52.40;98300.97;4192268;28;20624;-80
2023/06/04 06:34:10;;;;;;;2.90;2.13;;;;;;;22.52;52.94;98307.84;4195538;28;20630;-80
2023/06/04 06:36:14;;;;;;;4.30;2.10;;;;;;;22.71;53.21;98307.41;4195141;28;20637;-80
2023/06/04 06:38:17;;;;;;;2.80;2.10;;;;;;;22.85;53.07;98310.16;4197222;28;21168;-80
2023/06/04 06:40:22;;;;;;;3.27;2.20;;;;;;;23.06;51.79;98309.56;4193118;28;20631;-80
2023/06/04 06:42:25;;;;;;;3.60;2.00;;;;;;;23.19;51.96;98311.44;4197635;28;20707;-80
2023/06/04 06:44:30;;;;;;;3.97;2.33;;;;;;;23.54;52.06;98326.00;4194564;28;20638;-80
2023/06/04 06:46:33;;;;;;;3.57;1.90;;;;;;;23.76;51.76;98323.34;4192274;28;20628;-80
2023/06/04 06:48:37;;;;;;;3.70;1.90;;;;;;;24.00;50.71;98331.09;4194547;28;20638;-80
2023/06/04 06:50:40;;;;;;;3.47;2.00;;;;;;;23.70;50.87;98310.75;4190863;28;20632;-80
2023/06/04 06:52:43;;;;;;;3.60;1.90;;;;;;;23.78;52.14;98310.66;4196171;28;20716;-80
2023/06/04 06:54:46;;;;;;;2.27;1.67;;;;;;;24.04;50.61;98319.06;4190033;28;21305;-80
2023/06/04 06:56:51;;;;;;;2.60;1.93;;;;;;;24.16;49.93;98323.78;4195565;28;20628;-80
2023/06/04 06:58:54;;;;;;;4.33;2.17;;;;;;;24.28;50.37;98312.47;4198712;28;20748;-80
2023/06/04 07:00:57;;;;;;;2.87;1.87;;;;;;;24.45;50.53;98315.81;4180762;28;20649;-80
2023/06/04 07:03:01;;;;;;;3.17;2.10;;;;;;;24.43;49.21;98313.31;4195059;28;20682;-79
2023/06/04 07:05:05;;;;;;;2.93;2.00;;;;;;;24.65;49.74;98317.69;4182229;28;20642;-79
2023/06/04 07:07:08;;;;;;;2.60;2.10;;;;;;;24.95;50.72;98319.28;4194374;28;20686;-80
2023/06/04 07:09:12;;;;;;;3.70;2.20;;;;;;;25.02;50.03;98322.88;4180342;28;20620;-80
2023/06/04 07:11:16;;;;;;;2.83;1.70;;;;;;;25.13;50.69;98324.03;4202565;28;20736;-80
2023/06/04 07:13:21;;;;;;;3.33;2.07;;;;;;;25.35;48.87;98327.53;4197162;28;20993;-80
2023/06/04 07:15:24;;;;;;;2.90;1.80;;;;;;;25.47;48.52;98326.88;4175429;28;20980;-80
2023/06/04 07:17:27;;;;;;;2.87;1.87;;;;;;;25.66;48.91;98331.56;4189285;28;20684;-80
2023/06/04 07:19:30;;;;;;;2.80;1.97;;;;;;;25.70;49.08;98327.50;4186945;28;20627;-80
2023/06/04 07:21:34;;;;;;;2.90;1.90;;;;;;;25.69;48.57;98325.84;4200740;28;20665;-80
2023/06/04 07:23:37;;;;;;;4.53;2.40;;;;;;;25.89;48.96;98332.19;4198824;28;20628;-80
2023/06/04 07:25:40;;;;;;;2.60;2.00;;;;;;;25.85;48.13;98326.41;4209126;28;20634;-78
2023/06/04 07:27:43;;;;;;;4.07;2.00;;;;;;;26.05;49.36;98329.22;4201344;28;20635;-80
2023/06/04 07:29:48;;;;;;;3.10;2.30;;;;;;;26.08;47.75;98333.19;4205501;28;21110;-80
2023/06/04 07:31:51;;;;;;;2.43;1.90;;;;;;;25.91;47.77;98325.63;4200701;28;20642;-80
2023/06/04 07:33:54;;;;;;;4.60;2.10;;;;;;;26.00;49.84;98331.66;4202814;28;20631;-80
2023/06/04 07:35:58;;;;;;;2.83;2.13;;;;;;;26.28;49.27;98333.31;4196838;28;20666;-79
2023/06/04 07:38:01;;;;;;;2.10;1.80;;;;;;;26.05;47.90;98327.38;4195565;28;21318;-80
2023/06/04 07:40:05;;;;;;;3.00;2.03;;;;;;;25.94;48.24;98325.25;4196793;28;20670;-79
2023/06/04 07:42:08;;;;;;;2.90;2.00;;;;;;;26.16;48.38;98325.00;4196233;28;20991;-80
2023/06/04 07:44:12;;;;;;;2.63;2.13;;;;;;;26.28;48.24;98323.47;4196727;28;21514;-80
2023/06/04 07:46:18;;;;;;;4.00;2.50;;;;;;;26.37;48.29;98319.59;4195429;28;20651;-79
2023/06/04 07:48:22;;;;;;;3.00;1.77;;;;;;;26.44;48.03;98324.97;4193868;28;20631;-81
2023/06/04 07:50:25;;;;;;;2.57;1.80;;;;;;;26.63;49.07;98325.09;4190641;28;21062;-81
2023/06/04 07:52:28;;;;;;;3.00;2.20;;;;;;;26.78;48.68;98328.47;4203143;28;21337;-81
2023/06/04 07:54:33;;;;;;;5.60;2.33;;;;;;;26.72;47.68;98315.88;4206608;28;20631;-81
2023/06/04 07:56:36;;;;;;;3.03;2.37;;;;;;;26.78;48.13;98315.06;4198698;28;20645;-79
2023/06/04 07:58:41;;;;;;;3.43;2.10;;;;;;;26.82;47.79;98306.44;4182548;28;21356;-81
2023/06/04 08:00:44;;;;;;;2.67;2.10;;;;;;;26.98;47.83;98313.31;4198751;28;20631;-79
2023/06/04 08:02:50;;;;;;;2.30;1.90;;;;;;;27.10;48.63;98313.34;4194421;28;20694;-79
2023/06/04 08:04:54;;;;;;;2.87;2.10;;;;;;;27.27;47.38;98317.31;4182989;28;21498;-79
2023/06/04 08:06:57;;;;;;;2.80;2.30;;;;;;;27.18;47.98;98312.31;4175132;28;21294;-80
2023/06/04 08:09:00;;;;;;;2.80;1.90;;;;;;;27.20;48.04;98313.78;4176537;28;20730;-80
2023/06/04 08:11:03;;;;;;;3.90;2.00;;;;;;;27.25;47.44;98303.28;4201644;28;20762;-80
2023/06/04 08:13:08;;;;;;;3.40;2.50;;;;;;;27.20;46.80;98307.59;4196725;28;21216;-81
2023/06/04 08:15:11;;;;;;;5.40;2.30;;;;;;;27.11;48.78;98309.63;4172832;28;20642;-80
2023/06/04 08:17:29;;;;;;;2.87;2.00;;;;;;;27.46;48.51;98311.16;4194397;28;21239;-82
2023/06/04 08:19:35;;;;;;;3.40;2.10;;;;;;;27.44;47.93;98307.84;4194963;28;21216;-82
2023/06/04 08:21:42;;;;;;;2.90;2.20;;;;;;;27.42;46.96;98312.56;4195528;28;20703;-81
2023/06/04 08:24:04;;;;;;;3.53;2.47;;;;;;;26.98;46.02;98299.91;4199507;28;20654;-81
2023/06/04 08:26:27;;;;;;;3.37;2.10;;;;;;;27.02;47.71;98302.00;4194556;28;20631;-82
2023/06/04 08:28:40;;;;;;;3.30;2.10;;;;;;;26.87;46.30;98293.25;4196568;28;20627;-81
2023/06/04 08:30:47;;;;;;;3.70;2.30;;;;;;;26.66;46.54;98290.69;4194994;28;20674;-81
2023/06/04 08:33:00;;;;;;;3.50;2.20;;;;;;;26.82;47.63;98295.72;4183002;28;20683;-82
2023/06/04 08:35:22;;;;;;;3.10;2.20;;;;;;;26.90;46.41;98297.41;4195728;28;20628;-82
2023/06/04 08:37:25;;;;;;;5.13;2.00;;;;;;;26.82;46.77;98302.91;4196938;28;20738;-82
2023/06/04 08:39:28;;;;;;;2.90;2.20;;;;;;;27.04;46.78;98299.13;4197093;28;20618;-81
2023/06/04 08:41:35;;;;;;;3.27;2.00;;;;;;;27.11;47.43;98301.59;4198219;28;20728;-81
2023/06/04 08:43:40;;;;;;;2.83;2.10;;;;;;;27.12;45.97;98310.44;4198293;28;20668;-81
2023/06/04 08:45:44;;;;;;;3.13;2.20;;;;;;;26.90;46.53;98303.59;4199692;28;20651;-81
2023/06/04 08:47:50;;;;;;;4.90;2.60;;;;;;;26.97;45.85;98309.78;4198776;28;20635;-81
2023/06/04 08:49:53;;;;;;;2.40;1.97;;;;;;;26.87;46.30;98303.97;4198774;28;21209;-81
2023/06/04 08:51:58;;;;;;;4.50;2.73;;;;;;;26.91;45.64;98299.06;4194762;28;21273;-80
2023/06/04 08:54:01;;;;;;;3.33;2.20;;;;;;;26.96;47.46;98299.28;4192299;28;20640;-82
2023/06/04 08:56:04;;;;;;;2.60;2.00;;;;;;;26.96;47.02;98305.47;4190351;28;20731;-79
2023/06/04 08:58:10;;;;;;;3.93;2.53;;;;;;;26.94;46.40;98299.47;4191462;28;20715;-78
2023/06/04 09:00:15;;;;;;;3.93;2.23;;;;;;;26.87;46.76;98297.78;4198782;28;20634;-79
2023/06/04 09:02:18;;;;;;;4.07;1.80;;;;;;;26.77;45.30;98287.44;4190792;28;20751;-79
2023/06/04 09:04:22;;;;;;;3.03;2.20;;;;;;;26.91;46.61;98296.38;4189498;28;20674;-79
2023/06/04 09:06:26;;;;;;;3.20;2.20;;;;;;;26.96;45.54;98307.31;4190056;28;20664;-79
2023/06/04 09:08:33;;;;;;;3.80;2.20;;;;;;;26.94;45.13;98299.47;4187182;28;20648;-79
2023/06/04 09:10:38;;;;;;;3.13;2.10;;;;;;;26.75;45.71;98294.84;4187873;28;20635;-79
2023/06/04 09:12:43;;;;;;;3.03;2.30;;;;;;;26.90;46.81;98302.75;4194290;28;20637;-79
2023/06/04 09:14:50;;;;;;;3.13;2.20;;;;;;;26.85;45.73;98302.50;4200633;28;20736;-80
2023/06/04 09:16:54;;;;;;;3.03;2.27;;;;;;;26.78;45.50;98290.97;4182589;28;20773;-80
2023/06/04 09:18:59;;;;;;;3.30;2.30;;;;;;;26.73;46.10;98296.06;4183172;28;20643;-80
2023/06/04 09:21:03;;;;;;;2.80;2.47;;;;;;;26.91;46.18;98299.06;4184558;28;20640;-80
2023/06/04 09:23:14;;;;;;;3.37;2.40;;;;;;;26.97;45.51;98301.75;4196528;28;20641;-83
2023/06/04 09:25:23;;;;;;;3.27;2.30;;;;;;;26.74;45.33;98297.75;4196039;28;20632;-80
2023/06/04 09:27:27;;;;;;;2.40;2.20;;;;;;;26.89;46.80;98301.13;4197424;28;20643;-83
2023/06/04 09:29:31;;;;;;;2.83;2.07;;;;;;;27.10;46.08;98299.94;4182778;28;21078;-80
2023/06/04 09:31:37;;;;;;;4.33;3.87;;;;;;;27.16;45.57;98303.66;4194007;28;20706;-82
2023/06/04 09:33:44;;;;;;;3.77;2.30;;;;;;;27.03;44.53;98300.94;4185789;28;21039;-80
2023/06/04 09:35:55;;;;;;;4.80;3.17;;;;;;;27.04;45.64;98301.78;4192669;28;20629;-80
2023/06/04 09:37:58;;;;;;;3.27;2.30;;;;;;;27.05;45.28;98297.03;4182575;28;20645;-80
2023/06/04 09:40:05;;;;;;;4.97;2.70;;;;;;;27.01;48.40;98307.56;4200787;28;20722;-80
2023/06/04 09:42:11;;;;;;;2.73;2.10;;;;;;;27.04;49.84;98297.25;4189411;28;20654;-80
2023/06/04 09:44:14;;;;;;;3.23;2.30;;;;;;;27.07;45.14;98299.53;4194678;28;21089;-80
2023/06/04 09:46:19;;;;;;;4.03;2.40;;;;;;;26.97;45.10;98306.28;4192460;28;21223;-80
2023/06/04 09:48:25;;;;;;;3.07;2.30;;;;;;;26.80;45.71;98296.94;4191785;28;20738;-80